Time;durP1;ratioP1;P1;durP2;ratioP2;P2;SDS_P1;SDS_P2;PMS_P1;PMS_P2;Temp;Humidity;BMP_temperature;BMP_pressure;BME280_temperature;BME280_humidity;BME280_pressure;Samples;Min_cycle;Max_cycle;Signal;HPM_P1;HPM_P2
2022/11/12 00:00:42;;;;;;;3.78;2.47;;;8.40;76.20;;;;;;5027235;28;20530;-85
2022/11/12 00:03:08;;;;;;;2.72;2.13;;;8.40;76.20;;;;;;5018581;28;20488;-84
2022/11/12 00:05:34;;;;;;;4.82;2.30;;;8.40;76.30;;;;;;5035759;28;20025;-84
2022/11/12 00:08:00;;;;;;;3.22;2.35;;;8.40;76.40;;;;;;5027298;28;20109;-84
2022/11/12 00:10:26;;;;;;;6.85;2.88;;;8.40;76.40;;;;;;5037349;28;20025;-84
2022/11/12 00:12:52;;;;;;;2.33;2.13;;;8.40;76.40;;;;;;5017525;28;20018;-84
2022/11/12 00:15:18;;;;;;;7.85;3.60;;;8.30;76.30;;;;;;5017669;28;20054;-84
2022/11/12 00:17:43;;;;;;;2.63;2.33;;;8.30;76.40;;;;;;5028264;28;20037;-89
2022/11/12 00:20:10;;;;;;;2.60;2.03;;;8.30;77.00;;;;;;5029183;28;20499;-89
2022/11/12 00:22:35;;;;;;;4.03;2.75;;;8.30;76.40;;;;;;5013475;28;20397;-89
2022/11/12 00:25:02;;;;;;;5.63;1.88;;;8.30;76.30;;;;;;5029576;28;20033;-89
2022/11/12 00:27:28;;;;;;;2.80;2.22;;;8.20;76.20;;;;;;5023962;28;20427;-89
2022/11/12 00:29:53;;;;;;;4.68;2.15;;;8.20;76.30;;;;;;5011619;28;20037;-84
2022/11/12 00:32:19;;;;;;;2.53;2.10;;;8.20;76.40;;;;;;5015533;28;20030;-84
2022/11/12 00:34:45;;;;;;;3.90;2.42;;;8.20;76.40;;;;;;5014856;28;20490;-84
2022/11/12 00:37:11;;;;;;;4.00;2.15;;;8.10;76.30;;;;;;5027216;28;20104;-84
2022/11/12 00:39:36;;;;;;;5.32;2.72;;;8.10;76.30;;;;;;4979427;28;20079;-89
2022/11/12 00:42:02;;;;;;;5.25;2.42;;;8.10;76.40;;;;;;5030115;28;20410;-89
2022/11/12 00:44:28;;;;;;;2.88;2.15;;;8.10;76.60;;;;;;5012550;28;20030;-89
2022/11/12 00:46:54;;;;;;;4.80;2.78;;;8.10;76.50;;;;;;5031618;28;20618;-89
2022/11/12 00:49:20;;;;;;;4.03;2.42;;;8.10;76.50;;;;;;5018508;28;20025;-89
2022/11/12 00:51:46;;;;;;;3.03;1.83;;;8.00;77.10;;;;;;5042651;28;20030;-89
2022/11/12 00:54:12;;;;;;;3.38;2.53;;;8.00;76.40;;;;;;5027732;28;20026;-84
2022/11/12 00:56:37;;;;;;;7.38;2.85;;;8.00;76.50;;;;;;5033740;28;20476;-88
2022/11/12 00:59:03;;;;;;;2.80;1.92;;;8.00;76.50;;;;;;5009425;28;20041;-84
2022/11/12 01:01:29;;;;;;;2.63;2.28;;;8.00;76.60;;;;;;5026767;28;20057;-89
2022/11/12 01:03:57;;;;;;;3.00;2.65;;;8.00;77.10;;;;;;5030938;28;20050;-84
2022/11/12 01:06:24;;;;;;;3.03;2.22;;;7.90;76.50;;;;;;5028199;28;20115;-84
2022/11/12 01:08:50;;;;;;;4.80;2.83;;;7.90;76.60;;;;;;5015894;28;20022;-84
2022/11/12 01:11:22;;;;;;;3.78;2.58;;;7.90;76.70;;;;;;5031050;28;20168;-89
2022/11/12 01:13:53;;;;;;;3.83;2.13;;;7.90;77.30;;;;;;5011815;28;20049;-84
2022/11/12 01:16:21;;;;;;;3.10;2.03;;;7.90;76.60;;;;;;5009970;28;20625;-84
2022/11/12 01:18:50;;;;;;;4.18;2.15;;;7.80;76.60;;;;;;5005094;28;20034;-84
2022/11/12 01:21:16;;;;;;;3.58;2.30;;;7.80;76.60;;;;;;4991896;28;20045;-89
2022/11/12 01:23:42;;;;;;;3.42;2.45;;;7.80;76.60;;;;;;5010749;28;20027;-90
2022/11/12 01:26:16;;;;;;;2.55;2.28;;;7.80;76.50;;;;;;4995161;28;20037;-85
2022/11/12 01:28:42;;;;;;;4.88;2.95;;;7.80;76.50;;;;;;4993818;28;20030;-84
2022/11/12 01:31:21;;;;;;;3.72;2.38;;;7.70;76.60;;;;;;4993043;28;20084;-89
2022/11/12 01:33:49;;;;;;;2.45;2.00;;;7.80;76.70;;;;;;5012769;28;20030;-89
2022/11/12 01:36:16;;;;;;;4.03;2.95;;;7.70;76.60;;;;;;5011280;28;20030;-89
2022/11/12 01:38:43;;;;;;;3.40;2.55;;;7.70;76.60;;;;;;5000930;28;20030;-89
2022/11/12 01:41:12;;;;;;;2.75;2.47;;;7.70;76.70;;;;;;4994753;28;20033;-84
2022/11/12 01:43:38;;;;;;;3.03;2.58;;;7.70;76.70;;;;;;5005965;28;20026;-84
2022/11/12 01:46:26;;;;;;;3.55;2.65;;;7.70;76.80;;;;;;4992759;28;20100;-84
2022/11/12 01:48:57;;;;;;;3.78;2.70;;;7.70;76.70;;;;;;5015071;28;20089;-84
2022/11/12 01:51:29;;;;;;;3.85;3.13;;;7.60;76.80;;;;;;5005808;28;20385;-84
2022/11/12 01:53:56;;;;;;;;;;;7.60;76.70;;;;;;5004787;28;20029;-84
2022/11/12 01:56:26;;;;;;;5.65;3.20;;;7.60;76.80;;;;;;5005849;28;19913;-84
2022/11/12 01:58:55;;;;;;;4.80;3.13;;;7.50;77.10;;;;;;4996309;28;20020;-84
2022/11/12 02:01:21;;;;;;;5.75;2.55;;;7.50;77.00;;;;;;4988309;28;20157;-84
2022/11/12 02:03:46;;;;;;;3.08;2.40;;;7.50;77.00;;;;;;5001692;28;20112;-85
2022/11/12 02:06:14;;;;;;;5.38;2.60;;;7.50;76.90;;;;;;4992878;28;20122;-84
2022/11/12 02:08:40;;;;;;;2.92;2.63;;;7.50;76.80;;;;;;5007864;28;20469;-84
2022/11/12 02:11:13;;;;;;;3.78;2.97;;;7.50;76.80;;;;;;5008335;28;20084;-84
2022/11/12 02:13:57;;;;;;;3.88;2.60;;;7.50;76.80;;;;;;5004150;28;20042;-84
2022/11/12 02:16:44;;;;;;;4.90;2.97;;;7.50;76.90;;;;;;5014636;28;20049;-84
2022/11/12 02:19:12;;;;;;;3.72;2.45;;;7.50;76.80;;;;;;5039276;28;20120;-85
2022/11/12 02:21:38;;;;;;;4.65;2.90;;;7.40;76.90;;;;;;5031003;28;20021;-90
2022/11/12 02:24:13;;;;;;;3.78;3.00;;;7.40;76.90;;;;;;5037756;28;20110;-90
2022/11/12 02:26:50;;;;;;;3.25;2.38;;;7.40;76.90;;;;;;5033839;28;20588;-90
2022/11/12 02:29:15;;;;;;;3.58;2.63;;;7.40;76.90;;;;;;5034400;28;20022;-90
2022/11/12 02:31:41;;;;;;;3.28;2.33;;;7.40;77.00;;;;;;5016636;28;20115;-84
2022/11/12 02:34:07;;;;;;;4.55;2.78;;;7.40;77.00;;;;;;5043631;28;20442;-84
2022/11/12 02:36:33;;;;;;;5.28;2.58;;;7.40;76.90;;;;;;5029244;28;20038;-84
2022/11/12 02:38:58;;;;;;;4.38;2.55;;;7.40;76.80;;;;;;5026649;28;20022;-84
2022/11/12 02:41:24;;;;;;;3.67;2.83;;;7.30;76.80;;;;;;5028018;28;20083;-84
2022/11/12 02:43:50;;;;;;;2.72;2.47;;;7.30;76.90;;;;;;5019610;28;20107;-84
2022/11/12 02:46:16;;;;;;;3.67;2.30;;;7.30;77.10;;;;;;5031107;28;20065;-84
2022/11/12 02:48:41;;;;;;;6.95;2.97;;;7.30;77.10;;;;;;5021836;28;20025;-85
2022/11/12 02:51:07;;;;;;;3.42;2.30;;;7.30;77.10;;;;;;5033630;28;20025;-90
2022/11/12 02:53:33;;;;;;;4.47;3.10;;;7.30;77.00;;;;;;5023103;28;20041;-85
2022/11/12 02:56:00;;;;;;;4.85;2.70;;;7.30;77.10;;;;;;5036554;28;20036;-85
2022/11/12 02:58:26;;;;;;;3.38;2.50;;;7.20;77.20;;;;;;5029841;28;20029;-83
2022/11/12 03:00:52;;;;;;;5.47;2.92;;;7.20;77.20;;;;;;5039407;28;20022;-85
2022/11/12 03:03:18;;;;;;;2.40;2.20;;;7.20;77.10;;;;;;5036264;28;20117;-90
2022/11/12 03:05:45;;;;;;;5.25;2.58;;;7.20;77.20;;;;;;5016073;28;20061;-90
2022/11/12 03:08:10;;;;;;;4.82;3.13;;;7.20;77.30;;;;;;5026084;28;20445;-89
2022/11/12 03:10:38;;;;;;;4.22;3.03;;;7.20;77.20;;;;;;5027491;28;20026;-90
2022/11/12 03:13:04;;;;;;;12.65;2.22;;;7.20;77.20;;;;;;5034952;28;20027;-90
2022/11/12 03:15:30;;;;;;;4.68;2.47;;;7.20;77.20;;;;;;5034474;28;20052;-90
2022/11/12 03:17:59;;;;;;;3.17;2.20;;;7.20;77.20;;;;;;5023330;28;20029;-90
2022/11/12 03:20:25;;;;;;;4.00;2.90;;;7.20;77.20;;;;;;5022184;28;20076;-90
2022/11/12 03:22:59;;;;;;;3.00;2.17;;;7.20;77.30;;;;;;5024063;28;20105;-89
2022/11/12 03:25:26;;;;;;;3.10;2.47;;;7.20;77.40;;;;;;5019463;28;20124;-84
2022/11/12 03:27:59;;;;;;;2.90;2.60;;;7.20;77.60;;;;;;5044168;28;20021;-84
2022/11/12 03:30:26;;;;;;;4.78;2.60;;;7.10;77.50;;;;;;5025861;28;20021;-84
2022/11/12 03:32:52;;;;;;;4.03;2.80;;;7.10;77.70;;;;;;5034224;28;20058;-84
2022/11/12 03:35:18;;;;;;;5.68;2.72;;;7.10;77.80;;;;;;5029253;28;20053;-84
2022/11/12 03:37:44;;;;;;;3.25;2.42;;;7.00;77.80;;;;;;5040961;28;20044;-84
2022/11/12 03:40:10;;;;;;;3.97;2.92;;;6.90;78.00;;;;;;5034837;28;20045;-85
2022/11/12 03:42:35;;;;;;;4.50;2.75;;;6.90;78.20;;;;;;5008753;28;20029;-84
2022/11/12 03:45:01;;;;;;;3.80;2.53;;;6.90;78.30;;;;;;5033806;28;20033;-90
2022/11/12 03:47:26;;;;;;;4.82;2.80;;;6.90;78.30;;;;;;5027335;28;20082;-89
2022/11/12 03:49:52;;;;;;;3.00;2.35;;;6.90;78.40;;;;;;5018609;28;20488;-88
2022/11/12 03:52:18;;;;;;;5.03;2.75;;;6.90;78.50;;;;;;5042424;28;20074;-84
2022/11/12 03:54:43;;;;;;;3.90;2.95;;;6.90;78.60;;;;;;5030126;28;20025;-84
2022/11/12 03:57:09;;;;;;;3.67;2.58;;;6.90;78.80;;;;;;5013086;28;20029;-84
2022/11/12 03:59:35;;;;;;;5.43;3.05;;;6.90;78.90;;;;;;5017728;28;20029;-85
2022/11/12 04:02:00;;;;;;;4.18;2.70;;;6.90;78.90;;;;;;5019944;28;20060;-84
2022/11/12 04:08:34;;;;;;;3.38;2.58;;;6.90;78.90;;;;;;5002979;28;20116;-84
2022/11/12 04:09:55;;;;;;;4.18;2.92;;;6.90;79.00;;;;;;5025851;28;20179;-84
2022/11/12 04:15:05;;;;;;;6.65;3.17;;;6.90;79.60;;;;;;5006180;28;20089;-90
2022/11/12 04:22:59;;;;;;;4.05;3.25;;;6.80;79.00;;;;;;5001973;28;20122;-90
2022/11/12 04:28:09;;;;;;;4.60;2.78;;;6.90;79.10;;;;;;4985886;28;20500;-89
2022/11/12 04:30:34;;;;;;;4.07;2.83;;;6.90;78.90;;;;;;4976070;28;20121;-89
2022/11/12 04:33:00;;;;;;;6.00;3.50;;;6.90;78.80;;;;;;4961541;28;20065;-84
2022/11/12 04:35:26;;;;;;;3.67;3.20;;;6.90;78.70;;;;;;4989997;28;20066;-84
2022/11/12 04:37:52;;;;;;;5.70;2.17;;;6.90;78.80;;;;;;5017833;28;20022;-84
2022/11/12 04:45:55;;;;;;;4.18;3.00;;;6.80;78.80;;;;;;5001369;28;20381;-84
2022/11/12 04:48:22;;;;;;;6.25;3.15;;;6.80;78.90;;;;;;4994804;28;20121;-84
2022/11/12 04:50:53;;;;;;;4.85;2.60;;;6.80;78.80;;;;;;5010779;28;20037;-90
2022/11/12 04:53:19;;;;;;;5.20;2.90;;;6.80;78.70;;;;;;5012621;28;20020;-89
2022/11/12 04:55:44;;;;;;;4.18;2.22;;;6.80;78.60;;;;;;5005221;28;20046;-89
2022/11/12 04:58:10;;;;;;;4.32;2.95;;;6.80;78.60;;;;;;5009585;28;20036;-84
2022/11/12 05:00:35;;;;;;;3.17;2.53;;;6.80;78.50;;;;;;4969530;28;20129;-84
2022/11/12 05:03:01;;;;;;;7.45;3.17;;;6.80;78.50;;;;;;4963766;28;20506;-84
2022/11/12 05:05:27;;;;;;;3.30;2.58;;;6.80;78.50;;;;;;4978893;28;20089;-84
2022/11/12 05:07:52;;;;;;;3.88;2.53;;;6.70;78.50;;;;;;4989905;28;20069;-84
2022/11/12 05:10:18;;;;;;;4.72;3.20;;;6.70;78.80;;;;;;4961668;28;20038;-84
2022/11/12 05:12:44;;;;;;;9.57;2.85;;;6.60;79.10;;;;;;4992842;28;20038;-85
2022/11/12 05:15:12;;;;;;;3.15;2.55;;;6.60;79.20;;;;;;5012887;28;20485;-89
2022/11/12 05:17:42;;;;;;;4.28;2.50;;;6.60;79.20;;;;;;4987129;28;20035;-89
2022/11/12 05:20:10;;;;;;;4.60;2.88;;;6.70;79.10;;;;;;4997820;28;20084;-84
2022/11/12 05:22:36;;;;;;;2.63;2.28;;;6.70;78.90;;;;;;5005226;28;20130;-84
2022/11/12 05:25:02;;;;;;;4.95;3.03;;;6.70;78.80;;;;;;5002990;28;20069;-89
2022/11/12 05:27:27;;;;;;;3.60;2.25;;;6.70;78.70;;;;;;4991380;28;20037;-89
2022/11/12 05:29:53;;;;;;;4.10;2.78;;;6.70;78.80;;;;;;4990692;28;20026;-89
2022/11/12 05:32:19;;;;;;;4.68;3.08;;;6.70;78.80;;;;;;4988974;28;20026;-90
2022/11/12 05:34:45;;;;;;;3.60;2.45;;;6.60;78.70;;;;;;5013559;28;20081;-89
2022/11/12 05:37:12;;;;;;;4.68;2.92;;;6.60;78.70;;;;;;5008129;28;20018;-89
2022/11/12 05:39:38;;;;;;;6.60;2.60;;;6.60;78.60;;;;;;5006352;28;20052;-88
2022/11/12 05:42:04;;;;;;;3.88;3.17;;;6.60;78.60;;;;;;4992820;28;20061;-89
2022/11/12 05:44:30;;;;;;;5.43;3.13;;;6.60;79.30;;;;;;5007646;28;20029;-89
2022/11/12 05:46:58;;;;;;;3.42;2.55;;;6.60;79.00;;;;;;5006311;28;20027;-90
2022/11/12 05:49:25;;;;;;;6.45;3.22;;;6.60;78.90;;;;;;5011883;28;20113;-89
2022/11/12 05:51:50;;;;;;;5.60;3.22;;;6.60;78.90;;;;;;5009139;28;20066;-89
2022/11/12 05:54:16;;;;;;;3.92;2.97;;;6.60;78.90;;;;;;4986584;28;20058;-84
2022/11/12 05:56:42;;;;;;;4.25;2.78;;;6.60;78.80;;;;;;4986268;28;20159;-84
2022/11/12 05:59:10;;;;;;;3.60;3.03;;;6.60;78.80;;;;;;4986911;28;20129;-90
2022/11/12 06:01:42;;;;;;;3.95;2.53;;;6.60;78.80;;;;;;5005790;28;20414;-89
2022/11/12 06:04:12;;;;;;;3.47;2.50;;;6.60;78.80;;;;;;5006578;28;20038;-89
2022/11/12 06:06:39;;;;;;;3.28;2.25;;;6.60;78.70;;;;;;5008282;28;20132;-89
2022/11/12 06:09:06;;;;;;;3.97;2.72;;;6.60;78.60;;;;;;4991491;28;20029;-89
2022/11/12 06:11:32;;;;;;;4.38;2.30;;;6.60;79.10;;;;;;4984516;28;20471;-83
2022/11/12 06:13:58;;;;;;;4.95;2.58;;;6.60;78.60;;;;;;5009758;28;20453;-89
2022/11/12 06:16:24;;;;;;;3.50;2.63;;;6.50;78.50;;;;;;5007121;28;20493;-90
2022/11/12 06:18:50;;;;;;;5.30;2.78;;;6.50;78.50;;;;;;5008574;28;20038;-89
2022/11/12 06:21:18;;;;;;;3.63;2.70;;;6.50;78.50;;;;;;5005100;28;20027;-89
2022/11/12 06:23:46;;;;;;;3.97;2.38;;;6.50;78.40;;;;;;4993341;28;20030;-89
2022/11/12 06:26:12;;;;;;;2.08;1.88;;;6.50;78.40;;;;;;4997772;28;20048;-89
2022/11/12 06:28:40;;;;;;;2.63;2.22;;;6.50;78.40;;;;;;5005616;28;20489;-83
2022/11/12 06:31:06;;;;;;;3.67;2.45;;;6.50;78.40;;;;;;5005076;28;20026;-89
2022/11/12 06:33:32;;;;;;;2.08;1.88;;;6.50;78.50;;;;;;4999345;28;20043;-89
2022/11/12 06:36:04;;;;;;;2.63;2.15;;;6.50;78.50;;;;;;4993704;28;20093;-90
2022/11/12 06:38:31;;;;;;;2.47;1.83;;;6.50;78.50;;;;;;5007998;28;20038;-90
2022/11/12 06:41:08;;;;;;;5.10;3.13;;;6.50;78.40;;;;;;4989031;28;20081;-83
2022/11/12 06:43:34;;;;;;;3.92;2.58;;;6.50;78.40;;;;;;4987188;28;20030;-83
2022/11/12 06:46:02;;;;;;;8.98;3.13;;;6.40;78.60;;;;;;4991809;28;20061;-89
2022/11/12 06:48:28;;;;;;;3.22;2.38;;;6.40;78.70;;;;;;4988386;28;20023;-83
2022/11/12 06:50:55;;;;;;;3.13;2.50;;;6.40;78.80;;;;;;4958041;28;20031;-83
2022/11/12 06:53:21;;;;;;;2.67;2.10;;;6.40;78.70;;;;;;5002493;28;20030;-83
2022/11/12 06:55:47;;;;;;;3.25;2.25;;;6.40;78.70;;;;;;5001503;28;20085;-83
2022/11/12 06:58:13;;;;;;;2.15;1.95;;;6.40;78.70;;;;;;5001258;28;20065;-83
2022/11/12 07:00:38;;;;;;;3.97;2.33;;;6.40;78.70;;;;;;4986952;28;20031;-83
2022/11/12 07:03:08;;;;;;;3.30;2.17;;;6.40;78.70;;;;;;4991285;28;20061;-83
2022/11/12 07:05:37;;;;;;;3.95;2.67;;;6.30;78.80;;;;;;5007681;28;20077;-89
2022/11/12 07:08:04;;;;;;;5.25;2.67;;;6.40;78.90;;;;;;5006783;28;20031;-89
2022/11/12 07:10:30;;;;;;;3.25;2.50;;;6.40;78.90;;;;;;4994009;28;20022;-90
2022/11/12 07:12:55;;;;;;;6.03;2.95;;;6.40;78.90;;;;;;5010084;28;20104;-90
2022/11/12 07:15:21;;;;;;;4.80;2.35;;;6.40;78.90;;;;;;5008582;28;20505;-89
2022/11/12 07:17:47;;;;;;;2.50;2.20;;;6.40;78.80;;;;;;4991679;28;20022;-88
2022/11/12 07:20:13;;;;;;;4.03;2.53;;;6.50;78.80;;;;;;4993055;28;20126;-89
2022/11/12 07:22:38;;;;;;;2.28;2.05;;;6.50;78.80;;;;;;5006270;28;20026;-83
2022/11/12 07:25:05;;;;;;;2.95;2.65;;;6.50;78.80;;;;;;5003446;28;20043;-83
2022/11/12 07:27:30;;;;;;;3.65;2.25;;;6.60;78.80;;;;;;4988572;28;20030;-84
2022/11/12 07:29:56;;;;;;;4.72;2.47;;;6.60;79.50;;;;;;5003362;28;20038;-83
2022/11/12 07:32:22;;;;;;;2.58;2.33;;;6.60;78.80;;;;;;5004472;28;20027;-83
2022/11/12 07:34:49;;;;;;;4.90;2.63;;;6.60;78.90;;;;;;5013316;28;20504;-89
2022/11/12 07:37:15;;;;;;;2.72;2.00;;;6.70;79.00;;;;;;5009444;28;20058;-89
2022/11/12 07:39:40;;;;;;;4.53;2.85;;;6.60;79.00;;;;;;4994108;28;20429;-89
2022/11/12 07:42:06;;;;;;;5.13;2.58;;;6.60;78.90;;;;;;4990889;28;20127;-90
2022/11/12 07:44:32;;;;;;;3.13;2.10;;;6.70;78.90;;;;;;5011623;28;20105;-89
2022/11/12 07:46:57;;;;;;;2.97;2.55;;;6.70;78.90;;;;;;4994664;28;20497;-90
2022/11/12 07:49:23;;;;;;;5.25;2.88;;;6.70;78.90;;;;;;5006949;28;20107;-90
2022/11/12 07:51:49;;;;;;;3.42;2.20;;;6.70;78.90;;;;;;4999946;28;20052;-83
2022/11/12 07:54:14;;;;;;;3.63;2.25;;;6.80;78.90;;;;;;5003772;28;20027;-83
2022/11/12 07:56:40;;;;;;;2.38;2.17;;;6.80;79.00;;;;;;4987634;28;20046;-83
2022/11/12 07:59:06;;;;;;;3.15;2.58;;;6.80;79.20;;;;;;5004953;28;20226;-90
2022/11/12 08:01:38;;;;;;;4.50;2.75;;;6.90;79.30;;;;;;4989377;28;20034;-83
2022/11/12 08:04:09;;;;;;;3.40;2.40;;;6.90;79.30;;;;;;5002887;28;20023;-89
2022/11/12 08:06:35;;;;;;;2.53;2.33;;;6.90;79.30;;;;;;4986059;28;20027;-84
2022/11/12 08:09:05;;;;;;;3.78;2.17;;;6.90;79.30;;;;;;4992439;28;20026;-84
2022/11/12 08:11:31;;;;;;;2.13;1.85;;;7.00;79.50;;;;;;5001562;28;20053;-84
2022/11/12 08:13:57;;;;;;;3.58;2.65;;;7.00;79.50;;;;;;5008296;28;20049;-84
2022/11/12 08:16:23;;;;;;;6.20;2.67;;;7.00;79.40;;;;;;5012607;28;20245;-85
2022/11/12 08:18:49;;;;;;;2.30;2.10;;;7.10;79.50;;;;;;5013778;28;20025;-91
2022/11/12 08:21:16;;;;;;;2.28;2.08;;;7.20;79.60;;;;;;5051156;28;20040;-85
2022/11/12 08:23:42;;;;;;;3.25;2.53;;;7.20;79.60;;;;;;5018257;28;20021;-85
2022/11/12 08:26:11;;;;;;;4.40;2.45;;;7.30;79.60;;;;;;5029512;28;20195;-85
2022/11/12 08:28:37;;;;;;;4.68;2.50;;;7.40;79.60;;;;;;5029762;28;20399;-85
2022/11/12 08:31:22;;;;;;;3.75;2.47;;;7.50;79.60;;;;;;5028958;28;20163;-85
2022/11/12 08:33:48;;;;;;;4.78;2.95;;;7.60;79.40;;;;;;5011780;28;20112;-85
2022/11/12 08:36:15;;;;;;;4.80;2.90;;;7.60;79.60;;;;;;5009009;28;20178;-86
2022/11/12 08:38:42;;;;;;;3.00;2.50;;;7.70;79.50;;;;;;5034590;28;20627;-85
2022/11/12 08:41:10;;;;;;;4.93;3.05;;;7.70;79.50;;;;;;5019187;28;20028;-85
2022/11/12 08:43:36;;;;;;;3.20;2.63;;;7.80;79.50;;;;;;5009049;28;20159;-85
2022/11/12 08:46:03;;;;;;;3.25;2.00;;;7.90;79.40;;;;;;5027973;28;20041;-85
2022/11/12 08:48:30;;;;;;;3.03;2.67;;;8.00;79.40;;;;;;5011330;28;20149;-85
2022/11/12 08:50:56;;;;;;;2.67;1.77;;;8.10;79.30;;;;;;5034201;28;20105;-84
2022/11/12 08:53:23;;;;;;;4.15;2.70;;;8.30;79.30;;;;;;4999147;28;20026;-84
2022/11/12 08:55:53;;;;;;;5.38;2.33;;;8.40;79.10;;;;;;5026427;28;20034;-85
2022/11/12 08:58:19;;;;;;;4.40;2.67;;;8.50;79.10;;;;;;5010615;28;20384;-85
2022/11/12 09:00:45;;;;;;;2.47;2.28;;;8.70;79.00;;;;;;5024359;28;20029;-84
2022/11/12 09:03:21;;;;;;;6.30;3.03;;;8.80;79.00;;;;;;5034493;28;20041;-91
2022/11/12 09:05:48;;;;;;;4.68;2.00;;;8.90;79.00;;;;;;5033683;28;20202;-87
2022/11/12 09:08:20;;;;;;;2.90;2.53;;;9.10;78.80;;;;;;5035118;28;20519;-91
2022/11/12 09:10:47;;;;;;;3.80;2.63;;;9.30;78.70;;;;;;5041858;28;20021;-88
2022/11/12 09:13:13;;;;;;;3.80;2.55;;;9.30;78.70;;;;;;5010716;28;20033;-88
2022/11/12 09:15:39;;;;;;;4.35;2.65;;;9.50;78.80;;;;;;5034374;28;20037;-91
2022/11/12 09:18:12;;;;;;;4.22;2.78;;;9.60;78.70;;;;;;5011864;28;20025;-87
2022/11/12 09:20:38;;;;;;;4.47;2.53;;;9.70;78.70;;;;;;5014209;28;20488;-87
2022/11/12 09:23:14;;;;;;;2.78;2.03;;;9.80;78.60;;;;;;5014379;28;20152;-86
2022/11/12 09:25:40;;;;;;;3.20;2.40;;;10.00;78.60;;;;;;5030162;28;20036;-91
2022/11/12 09:28:13;;;;;;;2.72;2.17;;;10.10;78.50;;;;;;5017954;28;20021;-92
2022/11/12 09:30:44;;;;;;;4.97;2.53;;;10.30;78.40;;;;;;5034299;28;20021;-90
2022/11/12 09:33:09;;;;;;;3.55;2.78;;;10.40;78.40;;;;;;5034627;28;20116;-91
2022/11/12 09:35:35;;;;;;;2.53;2.28;;;10.50;78.40;;;;;;4995602;28;20112;-87
2022/11/12 09:38:01;;;;;;;4.53;2.25;;;10.60;78.40;;;;;;5010775;28;20034;-90
2022/11/12 09:40:51;;;;;;;2.88;2.42;;;10.70;78.20;;;;;;5028826;28;20060;-90
2022/11/12 09:43:17;;;;;;;2.63;2.08;;;10.80;78.30;;;;;;5033469;28;20064;-92
2022/11/12 09:45:44;;;;;;;3.15;2.55;;;10.90;78.30;;;;;;5035283;28;20044;-90
2022/11/12 09:48:14;;;;;;;2.20;2.00;;;11.00;78.30;;;;;;5017123;28;20021;-91
2022/11/12 09:50:55;;;;;;;3.20;2.50;;;11.10;78.10;;;;;;5033244;28;20060;-91
2022/11/12 09:53:52;;;;;;;4.47;2.38;;;11.20;77.90;;;;;;5034641;28;20048;-91
2022/11/12 09:56:20;;;;;;;2.83;1.80;;;11.30;77.80;;;;;;5009555;28;20040;-90
2022/11/12 09:58:47;;;;;;;7.53;2.30;;;11.40;77.80;;;;;;5034352;28;20130;-90
2022/11/12 10:01:35;;;;;;;4.95;2.80;;;11.60;77.80;;;;;;5033964;28;20034;-92
2022/11/12 10:04:27;;;;;;;2.53;2.33;;;11.80;77.50;;;;;;5033765;28;20439;-91
2022/11/12 10:07:23;;;;;;;3.03;2.40;;;12.00;77.10;;;;;;5038443;28;20085;-91
2022/11/12 10:10:02;;;;;;;3.13;2.35;;;12.20;76.80;;;;;;5033289;28;20091;-91
2022/11/12 10:12:53;;;;;;;3.63;2.95;;;12.50;76.60;;;;;;5034764;28;20079;-92
2022/11/12 10:18:59;;;;;;;4.72;2.97;;;13.00;75.80;;;;;;5016182;28;20072;-94
2022/11/12 10:21:27;;;;;;;5.03;2.80;;;13.30;75.20;;;;;;4998019;28;20033;-92
2022/11/12 10:23:53;;;;;;;5.43;2.95;;;13.60;74.80;;;;;;4997774;28;20030;-93
2022/11/12 10:26:21;;;;;;;4.05;2.60;;;13.80;74.40;;;;;;5030943;28;20057;-92
2022/11/12 10:29:11;;;;;;;3.25;2.80;;;14.10;73.80;;;;;;5034252;28;20017;-92
2022/11/12 10:31:37;;;;;;;4.30;2.92;;;14.40;73.20;;;;;;5035215;28;20091;-92
2022/11/12 10:34:12;;;;;;;3.53;2.90;;;14.60;72.80;;;;;;5034703;28;20017;-92
2022/11/12 10:36:42;;;;;;;3.85;2.40;;;14.90;72.40;;;;;;5038402;28;20032;-92
2022/11/12 10:39:08;;;;;;;2.50;2.30;;;15.20;71.90;;;;;;5022912;28;20033;-91
2022/11/12 10:41:33;;;;;;;5.35;3.17;;;15.40;71.30;;;;;;5039706;28;20033;-92
2022/11/12 10:44:02;;;;;;;4.22;3.13;;;15.70;71.10;;;;;;5039652;28;20462;-92
2022/11/12 10:46:36;;;;;;;5.47;2.83;;;16.00;70.50;;;;;;5040936;28;20037;-91
2022/11/12 10:49:07;;;;;;;3.72;2.75;;;16.60;69.80;;;;;;5039275;28;20468;-87
2022/11/12 10:51:37;;;;;;;4.80;3.10;;;17.50;67.60;;;;;;5031952;28;20017;-87
2022/11/12 10:54:27;;;;;;;2.35;2.03;;;18.80;64.60;;;;;;5031272;28;20034;-87
2022/11/12 10:56:53;;;;;;;2.50;2.03;;;20.40;60.30;;;;;;5030366;28;20033;-88
2022/11/12 10:59:20;;;;;;;2.78;2.17;;;21.90;56.70;;;;;;5031346;28;20091;-88
2022/11/12 11:01:54;;;;;;;9.63;2.40;;;23.20;53.80;;;;;;5016510;28;20030;-86
2022/11/12 11:04:29;;;;;;;2.55;2.00;;;24.30;51.60;;;;;;5027444;28;20029;-86
2022/11/12 11:07:23;;;;;;;3.42;2.20;;;25.00;49.50;;;;;;5022735;28;20059;-87
2022/11/12 11:09:57;;;;;;;2.55;2.10;;;25.50;48.10;;;;;;5037365;28;20494;-91
2022/11/12 11:12:33;;;;;;;3.03;2.05;;;26.00;47.60;;;;;;5038788;28;20021;-86
2022/11/12 11:15:06;;;;;;;2.65;1.75;;;26.40;47.10;;;;;;5031286;28;20484;-87
2022/11/12 11:17:33;;;;;;;2.15;1.73;;;26.80;46.10;;;;;;5031889;28;20404;-87
2022/11/12 11:19:59;;;;;;;2.30;1.55;;;27.10;45.30;;;;;;5030840;28;20028;-87
2022/11/12 11:22:35;;;;;;;2.22;1.60;;;27.50;44.80;;;;;;5031241;28;20025;-87
2022/11/12 11:25:06;;;;;;;3.03;1.63;;;28.00;44.00;;;;;;5021695;28;20033;-87
2022/11/12 11:27:44;;;;;;;2.13;1.58;;;28.60;42.90;;;;;;5032276;28;20434;-87
2022/11/12 11:30:15;;;;;;;2.00;1.80;;;28.50;42.40;;;;;;5014323;28;20021;-87
2022/11/12 11:32:53;;;;;;;2.85;1.98;;;28.40;42.40;;;;;;5030538;28;20029;-87
2022/11/12 11:35:46;;;;;;;3.67;1.60;;;28.30;42.00;;;;;;5012297;28;20026;-86
2022/11/12 11:38:41;;;;;;;2.65;1.58;;;28.10;42.10;;;;;;5030142;28;20069;-87
2022/11/12 11:41:06;;;;;;;1.85;1.73;;;27.90;42.00;;;;;;5011434;28;20034;-87
2022/11/12 11:44:10;;;;;;;2.33;1.65;;;27.80;42.30;;;;;;5035088;28;20104;-91
2022/11/12 11:46:48;;;;;;;1.92;1.52;;;27.80;42.30;;;;;;5016150;28;20049;-93
2022/11/12 11:49:56;;;;;;;1.92;1.40;;;28.10;42.10;;;;;;5021901;28;20040;-92
2022/11/12 11:52:54;;;;;;;3.30;1.40;;;28.50;41.40;;;;;;5020833;28;20388;-91
2022/11/12 11:55:51;;;;;;;2.15;1.55;;;28.90;41.10;;;;;;5031409;28;20033;-92
2022/11/12 11:58:31;;;;;;;3.03;1.45;;;29.30;40.40;;;;;;5012927;28;20060;-92
2022/11/12 12:01:15;;;;;;;1.90;1.73;;;29.70;39.70;;;;;;5021357;28;20026;-92
2022/11/12 12:03:59;;;;;;;4.18;1.50;;;29.90;39.50;;;;;;5010659;28;20462;-87
2022/11/12 12:06:35;;;;;;;1.70;1.02;;;30.10;39.30;;;;;;5016438;28;20030;-86
2022/11/12 12:09:35;;;;;;;1.80;1.40;;;30.30;39.20;;;;;;5029992;28;20030;-87
2022/11/12 12:12:10;;;;;;;1.83;1.40;;;30.50;39.00;;;;;;5027500;28;20063;-87
2022/11/12 12:14:58;;;;;;;1.90;1.65;;;30.80;38.90;;;;;;5030292;28;20037;-87
2022/11/12 12:18:02;;;;;;;1.85;1.40;;;30.70;38.30;;;;;;5019220;28;20037;-92
2022/11/12 12:21:09;;;;;;;2.17;1.85;;;30.00;38.70;;;;;;5021659;28;20121;-93
2022/11/12 12:24:03;;;;;;;1.88;1.48;;;28.70;39.70;;;;;;5020054;28;20030;-87
2022/11/12 12:26:43;;;;;;;2.42;2.15;;;27.50;41.50;;;;;;5027099;28;20048;-87
2022/11/12 12:29:20;;;;;;;1.45;1.35;;;27.10;42.50;;;;;;5015077;28;20454;-92
2022/11/12 12:31:55;;;;;;;3.22;1.92;;;26.80;42.50;;;;;;5033823;28;20023;-86
2022/11/12 12:34:34;;;;;;;1.80;1.70;;;26.30;43.10;;;;;;5029056;28;20069;-86
2022/11/12 12:37:21;;;;;;;1.55;1.25;;;25.80;43.70;;;;;;5028881;28;20107;-87
2022/11/12 12:40:03;;;;;;;2.05;1.85;;;25.30;44.60;;;;;;5033041;28;20464;-93
2022/11/12 12:42:33;;;;;;;;;;;25.00;44.90;;;;;;5017708;28;20032;-92
2022/11/12 12:45:10;;;;;;;2.45;1.90;;;24.40;45.40;;;;;;5000693;28;19913;-93
2022/11/12 12:47:43;;;;;;;4.00;2.08;;;23.60;46.50;;;;;;5017024;28;20034;-92
2022/11/12 12:50:14;;;;;;;6.05;2.10;;;22.80;48.10;;;;;;5017142;28;20033;-92
2022/11/12 12:53:28;;;;;;;3.58;1.95;;;22.30;49.30;;;;;;5019294;28;20032;-92
2022/11/12 12:55:57;;;;;;;1.85;1.50;;;22.10;50.10;;;;;;5014622;28;20034;-92
2022/11/12 12:58:29;;;;;;;3.78;1.42;;;22.30;49.80;;;;;;5017244;28;20034;-94
2022/11/12 13:01:08;;;;;;;1.92;1.52;;;22.10;49.80;;;;;;5018464;28;20036;-93
2022/11/12 13:03:43;;;;;;;2.13;1.48;;;21.70;50.30;;;;;;5016342;28;20032;-88
2022/11/12 13:06:21;;;;;;;2.60;1.85;;;21.20;51.30;;;;;;5035975;28;20043;-87
2022/11/12 13:08:53;;;;;;;1.77;1.67;;;20.90;52.40;;;;;;5012921;28;20037;-88
2022/11/12 13:12:20;;;;;;;;;;;21.10;52.60;;;;;;5032273;28;20029;-87
2022/11/12 13:14:37;;;;;;;1.73;1.30;;;21.70;51.50;;;;;;5028436;28;20006;-86
2022/11/12 13:17:06;;;;;;;1.70;1.55;;;22.00;51.20;;;;;;5015534;28;20033;-87
2022/11/12 13:19:51;;;;;;;1.70;1.58;;;22.50;50.30;;;;;;5029984;28;20500;-86
2022/11/12 13:22:19;;;;;;;1.70;1.35;;;22.80;49.40;;;;;;5029771;28;20037;-87
2022/11/12 13:25:12;;;;;;;1.92;1.38;;;22.70;49.40;;;;;;5019803;28;20108;-93
2022/11/12 13:27:44;;;;;;;2.47;1.85;;;23.10;49.00;;;;;;5020415;28;20030;-91
2022/11/12 13:30:12;;;;;;;2.50;1.83;;;24.00;48.10;;;;;;5019958;28;20029;-93
2022/11/12 13:32:46;;;;;;;1.92;1.02;;;25.10;46.10;;;;;;5020346;28;20121;-93
2022/11/12 13:35:20;;;;;;;1.83;1.73;;;25.30;45.20;;;;;;5020270;28;20026;-92